sensor_id;sensor_type;location;lat;lon;timestamp;P1;durP1;ratioP1;P2;durP2;ratioP2
48574;SDS011;34352;51.084;3.712;2022-10-30T00:00:09;18.80;;;8.70;;
48574;SDS011;34352;51.084;3.712;2022-10-30T00:02:35;17.73;;;8.98;;
48574;SDS011;34352;51.084;3.712;2022-10-30T00:05:01;20.85;;;9.52;;
48574;SDS011;34352;51.084;3.712;2022-10-30T00:07:27;18.67;;;8.93;;
48574;SDS011;34352;51.084;3.712;2022-10-30T00:09:53;18.92;;;9.10;;
48574;SDS011;34352;51.084;3.712;2022-10-30T00:12:19;17.73;;;8.73;;
48574;SDS011;34352;51.084;3.712;2022-10-30T00:14:44;19.63;;;9.48;;
48574;SDS011;34352;51.084;3.712;2022-10-30T00:17:10;22.58;;;9.27;;
48574;SDS011;34352;51.084;3.712;2022-10-30T00:19:37;18.15;;;9.02;;
48574;SDS011;34352;51.084;3.712;2022-10-30T00:22:03;17.17;;;9.02;;
48574;SDS011;34352;51.084;3.712;2022-10-30T00:24:29;20.08;;;9.52;;
48574;SDS011;34352;51.084;3.712;2022-10-30T00:26:55;16.85;;;9.10;;
48574;SDS011;34352;51.084;3.712;2022-10-30T00:29:20;16.08;;;9.35;;
48574;SDS011;34352;51.084;3.712;2022-10-30T00:31:51;19.10;;;8.70;;
48574;SDS011;34352;51.084;3.712;2022-10-30T00:34:17;17.45;;;8.85;;
48574;SDS011;34352;51.084;3.712;2022-10-30T00:36:43;20.45;;;8.90;;
48574;SDS011;34352;51.084;3.712;2022-10-30T00:39:09;21.40;;;9.82;;
48574;SDS011;34352;51.084;3.712;2022-10-30T00:41:35;18.75;;;9.23;;
48574;SDS011;34352;51.084;3.712;2022-10-30T00:44:50;20.30;;;10.15;;
48574;SDS011;34352;51.084;3.712;2022-10-30T00:49:56;20.75;;;9.70;;
48574;SDS011;34352;51.084;3.712;2022-10-30T00:52:24;15.27;;;8.80;;
48574;SDS011;34352;51.084;3.712;2022-10-30T00:54:53;21.45;;;9.23;;
48574;SDS011;34352;51.084;3.712;2022-10-30T00:57:21;21.00;;;9.18;;
48574;SDS011;34352;51.084;3.712;2022-10-30T00:59:47;21.33;;;8.45;;
48574;SDS011;34352;51.084;3.712;2022-10-30T01:02:16;19.48;;;9.60;;
48574;SDS011;34352;51.084;3.712;2022-10-30T01:04:45;23.15;;;8.88;;
48574;SDS011;34352;51.084;3.712;2022-10-30T01:07:13;17.00;;;8.98;;
48574;SDS011;34352;51.084;3.712;2022-10-30T01:09:40;17.77;;;9.15;;
48574;SDS011;34352;51.084;3.712;2022-10-30T01:12:07;20.58;;;9.68;;
48574;SDS011;34352;51.084;3.712;2022-10-30T01:14:35;19.42;;;9.50;;
48574;SDS011;34352;51.084;3.712;2022-10-30T01:17:10;17.98;;;9.15;;
48574;SDS011;34352;51.084;3.712;2022-10-30T01:22:58;16.95;;;9.15;;
48574;SDS011;34352;51.084;3.712;2022-10-30T01:28:58;22.40;;;9.30;;
48574;SDS011;34352;51.084;3.712;2022-10-30T01:31:51;19.10;;;9.63;;
48574;SDS011;34352;51.084;3.712;2022-10-30T01:37:45;14.85;;;8.30;;
48574;SDS011;34352;51.084;3.712;2022-10-30T01:40:25;17.67;;;9.20;;
48574;SDS011;34352;51.084;3.712;2022-10-30T01:42:57;18.48;;;9.30;;
48574;SDS011;34352;51.084;3.712;2022-10-30T01:45:45;19.63;;;9.57;;
48574;SDS011;34352;51.084;3.712;2022-10-30T01:48:35;16.90;;;9.85;;
48574;SDS011;34352;51.084;3.712;2022-10-30T02:02:08;23.67;;;10.52;;
48574;SDS011;34352;51.084;3.712;2022-10-30T02:04:37;23.80;;;9.73;;
48574;SDS011;34352;51.084;3.712;2022-10-30T02:07:03;19.42;;;10.38;;
48574;SDS011;34352;51.084;3.712;2022-10-30T02:09:29;18.05;;;9.88;;
48574;SDS011;34352;51.084;3.712;2022-10-30T02:11:57;24.33;;;10.43;;
48574;SDS011;34352;51.084;3.712;2022-10-30T02:14:29;19.90;;;11.35;;
48574;SDS011;34352;51.084;3.712;2022-10-30T02:17:02;23.02;;;10.75;;
48574;SDS011;34352;51.084;3.712;2022-10-30T02:22:02;21.25;;;10.15;;
48574;SDS011;34352;51.084;3.712;2022-10-30T02:24:39;19.40;;;10.82;;
48574;SDS011;34352;51.084;3.712;2022-10-30T02:27:10;24.10;;;11.50;;
48574;SDS011;34352;51.084;3.712;2022-10-30T02:29:37;27.33;;;12.15;;
48574;SDS011;34352;51.084;3.712;2022-10-30T02:32:03;24.85;;;11.80;;
48574;SDS011;34352;51.084;3.712;2022-10-30T02:34:29;24.83;;;12.70;;
48574;SDS011;34352;51.084;3.712;2022-10-30T02:37:12;23.88;;;11.30;;
48574;SDS011;34352;51.084;3.712;2022-10-30T02:39:41;24.48;;;11.52;;
48574;SDS011;34352;51.084;3.712;2022-10-30T02:42:08;24.40;;;12.02;;
48574;SDS011;34352;51.084;3.712;2022-10-30T02:44:36;22.55;;;12.00;;
48574;SDS011;34352;51.084;3.712;2022-10-30T02:47:02;21.63;;;11.73;;
48574;SDS011;34352;51.084;3.712;2022-10-30T02:49:28;21.77;;;11.50;;
48574;SDS011;34352;51.084;3.712;2022-10-30T02:51:56;23.10;;;11.95;;
48574;SDS011;34352;51.084;3.712;2022-10-30T02:54:28;23.50;;;12.63;;
48574;SDS011;34352;51.084;3.712;2022-10-30T02:56:54;25.38;;;11.57;;
48574;SDS011;34352;51.084;3.712;2022-10-30T02:59:19;27.02;;;11.93;;
48574;SDS011;34352;51.084;3.712;2022-10-30T03:01:45;23.55;;;11.88;;
48574;SDS011;34352;51.084;3.712;2022-10-30T03:04:12;25.48;;;12.02;;
48574;SDS011;34352;51.084;3.712;2022-10-30T03:06:37;21.42;;;11.75;;
48574;SDS011;34352;51.084;3.712;2022-10-30T03:09:03;22.77;;;11.73;;
48574;SDS011;34352;51.084;3.712;2022-10-30T03:11:29;21.05;;;11.57;;
48574;SDS011;34352;51.084;3.712;2022-10-30T03:14:01;19.25;;;11.48;;
48574;SDS011;34352;51.084;3.712;2022-10-30T03:16:26;22.17;;;12.20;;
48574;SDS011;34352;51.084;3.712;2022-10-30T03:18:56;20.88;;;11.45;;
48574;SDS011;34352;51.084;3.712;2022-10-30T03:21:23;18.90;;;11.30;;
48574;SDS011;34352;51.084;3.712;2022-10-30T03:23:52;22.30;;;11.57;;
48574;SDS011;34352;51.084;3.712;2022-10-30T03:26:20;24.40;;;11.02;;
48574;SDS011;34352;51.084;3.712;2022-10-30T03:28:54;18.95;;;10.85;;
48574;SDS011;34352;51.084;3.712;2022-10-30T03:31:19;24.00;;;11.48;;
48574;SDS011;34352;51.084;3.712;2022-10-30T03:33:46;28.45;;;13.07;;
48574;SDS011;34352;51.084;3.712;2022-10-30T03:36:12;21.38;;;12.82;;
48574;SDS011;34352;51.084;3.712;2022-10-30T03:38:39;27.98;;;12.73;;
48574;SDS011;34352;51.084;3.712;2022-10-30T03:41:07;29.15;;;13.13;;
48574;SDS011;34352;51.084;3.712;2022-10-30T03:43:32;27.15;;;12.57;;
48574;SDS011;34352;51.084;3.712;2022-10-30T03:45:58;24.23;;;12.70;;
48574;SDS011;34352;51.084;3.712;2022-10-30T03:48:24;23.00;;;12.45;;
48574;SDS011;34352;51.084;3.712;2022-10-30T03:50:52;24.70;;;13.07;;
48574;SDS011;34352;51.084;3.712;2022-10-30T03:53:18;23.38;;;12.20;;
48574;SDS011;34352;51.084;3.712;2022-10-30T03:55:45;22.65;;;13.10;;
48574;SDS011;34352;51.084;3.712;2022-10-30T03:58:10;24.35;;;12.23;;
48574;SDS011;34352;51.084;3.712;2022-10-30T04:00:36;23.17;;;11.70;;
48574;SDS011;34352;51.084;3.712;2022-10-30T04:03:04;23.60;;;12.00;;
48574;SDS011;34352;51.084;3.712;2022-10-30T04:05:32;30.15;;;12.52;;
48574;SDS011;34352;51.084;3.712;2022-10-30T04:08:00;25.25;;;12.18;;
48574;SDS011;34352;51.084;3.712;2022-10-30T04:10:26;22.35;;;10.95;;
48574;SDS011;34352;51.084;3.712;2022-10-30T04:12:58;21.70;;;11.82;;
48574;SDS011;34352;51.084;3.712;2022-10-30T04:15:28;20.60;;;11.38;;
48574;SDS011;34352;51.084;3.712;2022-10-30T04:17:54;20.85;;;11.18;;
48574;SDS011;34352;51.084;3.712;2022-10-30T04:20:20;16.45;;;11.07;;
48574;SDS011;34352;51.084;3.712;2022-10-30T04:22:46;21.17;;;11.32;;
48574;SDS011;34352;51.084;3.712;2022-10-30T04:25:20;17.42;;;11.02;;
48574;SDS011;34352;51.084;3.712;2022-10-30T04:27:45;22.30;;;11.32;;
48574;SDS011;34352;51.084;3.712;2022-10-30T04:30:13;20.27;;;11.02;;
48574;SDS011;34352;51.084;3.712;2022-10-30T04:32:47;24.88;;;11.48;;
48574;SDS011;34352;51.084;3.712;2022-10-30T04:35:13;29.02;;;12.80;;
48574;SDS011;34352;51.084;3.712;2022-10-30T04:37:41;27.42;;;12.50;;
48574;SDS011;34352;51.084;3.712;2022-10-30T04:40:07;16.83;;;10.48;;
48574;SDS011;34352;51.084;3.712;2022-10-30T04:42:33;19.67;;;11.10;;
48574;SDS011;34352;51.084;3.712;2022-10-30T04:44:59;19.42;;;10.65;;
48574;SDS011;34352;51.084;3.712;2022-10-30T04:47:26;20.90;;;11.88;;
48574;SDS011;34352;51.084;3.712;2022-10-30T04:49:54;23.42;;;11.48;;
48574;SDS011;34352;51.084;3.712;2022-10-30T04:52:19;22.88;;;11.75;;
48574;SDS011;34352;51.084;3.712;2022-10-30T04:54:46;27.00;;;12.00;;
48574;SDS011;34352;51.084;3.712;2022-10-30T04:57:11;19.52;;;10.77;;
48574;SDS011;34352;51.084;3.712;2022-10-30T04:59:37;21.30;;;11.13;;
48574;SDS011;34352;51.084;3.712;2022-10-30T05:02:03;20.95;;;11.23;;
48574;SDS011;34352;51.084;3.712;2022-10-30T05:04:30;20.02;;;10.82;;
48574;SDS011;34352;51.084;3.712;2022-10-30T05:06:57;22.33;;;11.13;;
48574;SDS011;34352;51.084;3.712;2022-10-30T05:09:22;20.83;;;11.98;;
48574;SDS011;34352;51.084;3.712;2022-10-30T05:11:50;23.80;;;11.35;;
48574;SDS011;34352;51.084;3.712;2022-10-30T05:14:15;25.98;;;11.52;;
48574;SDS011;34352;51.084;3.712;2022-10-30T05:16:41;23.05;;;11.05;;
48574;SDS011;34352;51.084;3.712;2022-10-30T05:19:07;20.33;;;12.23;;
48574;SDS011;34352;51.084;3.712;2022-10-30T05:21:32;23.98;;;12.10;;
48574;SDS011;34352;51.084;3.712;2022-10-30T05:23:58;18.63;;;10.77;;
48574;SDS011;34352;51.084;3.712;2022-10-30T05:26:24;21.73;;;11.30;;
48574;SDS011;34352;51.084;3.712;2022-10-30T05:28:50;20.10;;;11.00;;
48574;SDS011;34352;51.084;3.712;2022-10-30T05:31:16;21.10;;;11.18;;
48574;SDS011;34352;51.084;3.712;2022-10-30T05:33:43;19.13;;;10.63;;
48574;SDS011;34352;51.084;3.712;2022-10-30T05:36:08;24.25;;;11.18;;
48574;SDS011;34352;51.084;3.712;2022-10-30T05:38:34;24.92;;;11.60;;
48574;SDS011;34352;51.084;3.712;2022-10-30T05:41:01;24.15;;;12.02;;
48574;SDS011;34352;51.084;3.712;2022-10-30T05:43:27;25.67;;;11.73;;
48574;SDS011;34352;51.084;3.712;2022-10-30T05:45:54;23.25;;;11.32;;
48574;SDS011;34352;51.084;3.712;2022-10-30T05:48:19;23.05;;;10.75;;
48574;SDS011;34352;51.084;3.712;2022-10-30T05:50:45;22.00;;;11.02;;
48574;SDS011;34352;51.084;3.712;2022-10-30T05:53:12;20.33;;;11.27;;
48574;SDS011;34352;51.084;3.712;2022-10-30T05:55:37;18.48;;;10.73;;
48574;SDS011;34352;51.084;3.712;2022-10-30T05:58:04;19.88;;;10.68;;
48574;SDS011;34352;51.084;3.712;2022-10-30T06:00:31;24.20;;;10.90;;
48574;SDS011;34352;51.084;3.712;2022-10-30T06:03:00;17.63;;;11.48;;
48574;SDS011;34352;51.084;3.712;2022-10-30T06:05:31;17.92;;;10.85;;
48574;SDS011;34352;51.084;3.712;2022-10-30T06:08:05;19.38;;;10.77;;
48574;SDS011;34352;51.084;3.712;2022-10-30T06:10:31;18.58;;;11.18;;
48574;SDS011;34352;51.084;3.712;2022-10-30T06:13:00;18.67;;;10.85;;
48574;SDS011;34352;51.084;3.712;2022-10-30T06:15:28;21.27;;;11.10;;
48574;SDS011;34352;51.084;3.712;2022-10-30T06:17:54;19.77;;;10.23;;
48574;SDS011;34352;51.084;3.712;2022-10-30T06:20:22;18.08;;;10.32;;
48574;SDS011;34352;51.084;3.712;2022-10-30T06:25:18;24.17;;;11.13;;
48574;SDS011;34352;51.084;3.712;2022-10-30T06:27:44;22.85;;;11.30;;
48574;SDS011;34352;51.084;3.712;2022-10-30T06:30:10;21.85;;;10.73;;
48574;SDS011;34352;51.084;3.712;2022-10-30T06:32:37;20.00;;;11.40;;
48574;SDS011;34352;51.084;3.712;2022-10-30T06:35:02;21.77;;;11.30;;
48574;SDS011;34352;51.084;3.712;2022-10-30T06:37:28;22.08;;;11.65;;
48574;SDS011;34352;51.084;3.712;2022-10-30T06:39:54;25.35;;;12.07;;
48574;SDS011;34352;51.084;3.712;2022-10-30T06:42:20;22.90;;;12.15;;
48574;SDS011;34352;51.084;3.712;2022-10-30T06:44:45;21.63;;;11.77;;
48574;SDS011;34352;51.084;3.712;2022-10-30T06:47:13;24.23;;;12.45;;
48574;SDS011;34352;51.084;3.712;2022-10-30T06:49:40;24.65;;;12.80;;
48574;SDS011;34352;51.084;3.712;2022-10-30T06:52:05;24.70;;;12.48;;
48574;SDS011;34352;51.084;3.712;2022-10-30T06:54:31;20.40;;;11.60;;
48574;SDS011;34352;51.084;3.712;2022-10-30T06:56:57;26.45;;;11.93;;
48574;SDS011;34352;51.084;3.712;2022-10-30T06:59:22;20.75;;;12.00;;
48574;SDS011;34352;51.084;3.712;2022-10-30T07:01:48;19.02;;;11.57;;
48574;SDS011;34352;51.084;3.712;2022-10-30T07:04:15;20.05;;;10.88;;
48574;SDS011;34352;51.084;3.712;2022-10-30T07:06:40;24.80;;;12.20;;
48574;SDS011;34352;51.084;3.712;2022-10-30T07:09:06;19.80;;;11.18;;
48574;SDS011;34352;51.084;3.712;2022-10-30T07:11:32;24.05;;;11.43;;
48574;SDS011;34352;51.084;3.712;2022-10-30T07:13:57;25.13;;;11.77;;
48574;SDS011;34352;51.084;3.712;2022-10-30T07:16:23;20.50;;;12.18;;
48574;SDS011;34352;51.084;3.712;2022-10-30T07:18:49;18.40;;;11.45;;
48574;SDS011;34352;51.084;3.712;2022-10-30T07:21:15;22.77;;;12.02;;
48574;SDS011;34352;51.084;3.712;2022-10-30T07:23:43;26.42;;;12.23;;
48574;SDS011;34352;51.084;3.712;2022-10-30T07:26:09;25.25;;;11.88;;
48574;SDS011;34352;51.084;3.712;2022-10-30T07:28:34;20.38;;;11.52;;
48574;SDS011;34352;51.084;3.712;2022-10-30T07:31:01;19.10;;;10.85;;
48574;SDS011;34352;51.084;3.712;2022-10-30T07:33:28;16.92;;;11.07;;
48574;SDS011;34352;51.084;3.712;2022-10-30T07:35:54;20.77;;;11.15;;
48574;SDS011;34352;51.084;3.712;2022-10-30T07:41:05;24.27;;;11.65;;
48574;SDS011;34352;51.084;3.712;2022-10-30T07:43:33;23.00;;;10.98;;
48574;SDS011;34352;51.084;3.712;2022-10-30T07:45:59;27.88;;;12.30;;
48574;SDS011;34352;51.084;3.712;2022-10-30T07:48:44;26.42;;;12.85;;
48574;SDS011;34352;51.084;3.712;2022-10-30T07:51:10;22.10;;;11.88;;
48574;SDS011;34352;51.084;3.712;2022-10-30T07:53:37;23.95;;;11.70;;
48574;SDS011;34352;51.084;3.712;2022-10-30T07:56:02;22.23;;;11.70;;
48574;SDS011;34352;51.084;3.712;2022-10-30T07:58:28;25.30;;;12.23;;
48574;SDS011;34352;51.084;3.712;2022-10-30T08:00:55;19.42;;;11.82;;
48574;SDS011;34352;51.084;3.712;2022-10-30T08:03:23;20.42;;;12.32;;
48574;SDS011;34352;51.084;3.712;2022-10-30T08:05:57;24.70;;;12.55;;
48574;SDS011;34352;51.084;3.712;2022-10-30T08:08:24;25.48;;;13.48;;
48574;SDS011;34352;51.084;3.712;2022-10-30T08:10:50;24.40;;;12.32;;
48574;SDS011;34352;51.084;3.712;2022-10-30T08:13:28;26.08;;;11.68;;
48574;SDS011;34352;51.084;3.712;2022-10-30T08:15:53;22.20;;;11.60;;
48574;SDS011;34352;51.084;3.712;2022-10-30T08:18:19;20.13;;;11.00;;
48574;SDS011;34352;51.084;3.712;2022-10-30T08:20:47;22.58;;;11.00;;
48574;SDS011;34352;51.084;3.712;2022-10-30T08:23:14;19.75;;;10.73;;
48574;SDS011;34352;51.084;3.712;2022-10-30T08:25:41;19.02;;;10.15;;
48574;SDS011;34352;51.084;3.712;2022-10-30T08:28:07;20.73;;;9.95;;
48574;SDS011;34352;51.084;3.712;2022-10-30T08:30:42;22.35;;;10.32;;
48574;SDS011;34352;51.084;3.712;2022-10-30T08:33:11;19.77;;;9.85;;
48574;SDS011;34352;51.084;3.712;2022-10-30T08:35:37;21.50;;;9.98;;
48574;SDS011;34352;51.084;3.712;2022-10-30T08:38:03;18.73;;;9.57;;
48574;SDS011;34352;51.084;3.712;2022-10-30T08:40:29;20.20;;;9.30;;
48574;SDS011;34352;51.084;3.712;2022-10-30T08:42:55;21.42;;;9.98;;
48574;SDS011;34352;51.084;3.712;2022-10-30T08:45:22;22.17;;;9.30;;
48574;SDS011;34352;51.084;3.712;2022-10-30T08:47:58;17.13;;;9.27;;
48574;SDS011;34352;51.084;3.712;2022-10-30T08:50:25;15.57;;;9.30;;
48574;SDS011;34352;51.084;3.712;2022-10-30T08:52:51;17.75;;;9.13;;
48574;SDS011;34352;51.084;3.712;2022-10-30T08:55:17;23.52;;;9.10;;
48574;SDS011;34352;51.084;3.712;2022-10-30T08:57:44;20.20;;;8.98;;
48574;SDS011;34352;51.084;3.712;2022-10-30T09:00:10;18.40;;;9.18;;
48574;SDS011;34352;51.084;3.712;2022-10-30T09:02:36;17.13;;;8.65;;
48574;SDS011;34352;51.084;3.712;2022-10-30T09:05:03;15.32;;;8.30;;
48574;SDS011;34352;51.084;3.712;2022-10-30T09:07:30;18.10;;;8.60;;
48574;SDS011;34352;51.084;3.712;2022-10-30T09:09:56;15.35;;;8.35;;
48574;SDS011;34352;51.084;3.712;2022-10-30T09:12:22;18.35;;;8.13;;
48574;SDS011;34352;51.084;3.712;2022-10-30T09:14:47;19.48;;;8.63;;
48574;SDS011;34352;51.084;3.712;2022-10-30T09:17:13;14.40;;;8.65;;
48574;SDS011;34352;51.084;3.712;2022-10-30T09:19:38;19.63;;;8.70;;
48574;SDS011;34352;51.084;3.712;2022-10-30T09:22:04;21.95;;;10.85;;
48574;SDS011;34352;51.084;3.712;2022-10-30T09:24:30;16.48;;;8.40;;
48574;SDS011;34352;51.084;3.712;2022-10-30T09:26:55;20.33;;;9.02;;
48574;SDS011;34352;51.084;3.712;2022-10-30T09:29:21;18.27;;;8.18;;
48574;SDS011;34352;51.084;3.712;2022-10-30T09:31:47;19.38;;;8.32;;
48574;SDS011;34352;51.084;3.712;2022-10-30T09:34:12;15.32;;;7.53;;
48574;SDS011;34352;51.084;3.712;2022-10-30T09:36:38;14.65;;;8.00;;
48574;SDS011;34352;51.084;3.712;2022-10-30T09:39:11;16.95;;;8.32;;
48574;SDS011;34352;51.084;3.712;2022-10-30T09:58:31;21.13;;;8.63;;
48574;SDS011;34352;51.084;3.712;2022-10-30T10:04:07;17.83;;;8.25;;
48574;SDS011;34352;51.084;3.712;2022-10-30T10:06:45;12.68;;;7.90;;
48574;SDS011;34352;51.084;3.712;2022-10-30T10:09:18;19.42;;;8.85;;
48574;SDS011;34352;51.084;3.712;2022-10-30T10:11:50;21.95;;;8.90;;
48574;SDS011;34352;51.084;3.712;2022-10-30T10:14:34;21.23;;;8.80;;
48574;SDS011;34352;51.084;3.712;2022-10-30T10:17:04;18.80;;;8.77;;
48574;SDS011;34352;51.084;3.712;2022-10-30T10:19:48;18.65;;;8.63;;
48574;SDS011;34352;51.084;3.712;2022-10-30T10:22:25;23.17;;;8.82;;
48574;SDS011;34352;51.084;3.712;2022-10-30T10:24:58;16.90;;;8.25;;
48574;SDS011;34352;51.084;3.712;2022-10-30T10:30:13;20.05;;;9.10;;
48574;SDS011;34352;51.084;3.712;2022-10-30T10:32:49;17.08;;;8.80;;
48574;SDS011;34352;51.084;3.712;2022-10-30T10:46:32;15.73;;;8.32;;
48574;SDS011;34352;51.084;3.712;2022-10-30T10:51:46;14.70;;;8.23;;
48574;SDS011;34352;51.084;3.712;2022-10-30T10:54:21;16.42;;;8.85;;
48574;SDS011;34352;51.084;3.712;2022-10-30T10:56:53;19.00;;;7.85;;
48574;SDS011;34352;51.084;3.712;2022-10-30T11:04:44;16.38;;;7.05;;
48574;SDS011;34352;51.084;3.712;2022-10-30T11:10:05;15.23;;;7.50;;
48574;SDS011;34352;51.084;3.712;2022-10-30T11:12:37;20.40;;;8.25;;
48574;SDS011;34352;51.084;3.712;2022-10-30T11:26:53;17.25;;;8.40;;
48574;SDS011;34352;51.084;3.712;2022-10-30T11:29:25;18.45;;;7.97;;
48574;SDS011;34352;51.084;3.712;2022-10-30T11:32:03;14.55;;;7.90;;
48574;SDS011;34352;51.084;3.712;2022-10-30T11:34:34;16.20;;;7.25;;
48574;SDS011;34352;51.084;3.712;2022-10-30T11:37:03;16.67;;;8.48;;
48574;SDS011;34352;51.084;3.712;2022-10-30T11:39:32;20.27;;;8.07;;
48574;SDS011;34352;51.084;3.712;2022-10-30T11:44:42;18.17;;;8.20;;
48574;SDS011;34352;51.084;3.712;2022-10-30T11:47:15;16.95;;;8.35;;
48574;SDS011;34352;51.084;3.712;2022-10-30T11:49:47;16.35;;;8.13;;
48574;SDS011;34352;51.084;3.712;2022-10-30T11:52:14;18.00;;;9.10;;
48574;SDS011;34352;51.084;3.712;2022-10-30T11:54:52;18.73;;;8.00;;
48574;SDS011;34352;51.084;3.712;2022-10-30T11:57:39;16.88;;;7.38;;
48574;SDS011;34352;51.084;3.712;2022-10-30T12:00:26;18.70;;;7.63;;
48574;SDS011;34352;51.084;3.712;2022-10-30T12:02:55;15.05;;;8.55;;
48574;SDS011;34352;51.084;3.712;2022-10-30T12:07:53;16.52;;;8.05;;
48574;SDS011;34352;51.084;3.712;2022-10-30T12:13:26;12.27;;;7.30;;
48574;SDS011;34352;51.084;3.712;2022-10-30T12:16:13;12.43;;;7.70;;
48574;SDS011;34352;51.084;3.712;2022-10-30T12:18:41;16.17;;;8.10;;
48574;SDS011;34352;51.084;3.712;2022-10-30T12:21:16;24.75;;;8.32;;
48574;SDS011;34352;51.084;3.712;2022-10-30T12:23:44;15.65;;;6.80;;
48574;SDS011;34352;51.084;3.712;2022-10-30T12:26:23;11.68;;;6.45;;
48574;SDS011;34352;51.084;3.712;2022-10-30T12:28:52;10.85;;;6.32;;
48574;SDS011;34352;51.084;3.712;2022-10-30T12:31:27;16.70;;;6.75;;
48574;SDS011;34352;51.084;3.712;2022-10-30T12:34:23;13.13;;;6.07;;
48574;SDS011;34352;51.084;3.712;2022-10-30T12:36:51;17.55;;;6.93;;
48574;SDS011;34352;51.084;3.712;2022-10-30T12:39:24;12.40;;;6.78;;
48574;SDS011;34352;51.084;3.712;2022-10-30T12:42:13;10.45;;;5.90;;
48574;SDS011;34352;51.084;3.712;2022-10-30T12:44:49;10.70;;;6.40;;
48574;SDS011;34352;51.084;3.712;2022-10-30T12:47:28;13.57;;;6.70;;
48574;SDS011;34352;51.084;3.712;2022-10-30T12:50:01;10.68;;;5.95;;
48574;SDS011;34352;51.084;3.712;2022-10-30T12:52:53;10.73;;;5.22;;
48574;SDS011;34352;51.084;3.712;2022-10-30T12:55:23;13.55;;;6.60;;
48574;SDS011;34352;51.084;3.712;2022-10-30T13:00:44;12.75;;;7.47;;
48574;SDS011;34352;51.084;3.712;2022-10-30T13:03:34;14.05;;;7.68;;
48574;SDS011;34352;51.084;3.712;2022-10-30T13:06:06;10.25;;;6.70;;
48574;SDS011;34352;51.084;3.712;2022-10-30T13:08:35;12.32;;;8.18;;
48574;SDS011;34352;51.084;3.712;2022-10-30T13:11:18;14.13;;;7.93;;
48574;SDS011;34352;51.084;3.712;2022-10-30T13:13:52;16.00;;;8.57;;
48574;SDS011;34352;51.084;3.712;2022-10-30T13:16:28;15.40;;;9.13;;
48574;SDS011;34352;51.084;3.712;2022-10-30T13:18:56;15.20;;;8.90;;
48574;SDS011;34352;51.084;3.712;2022-10-30T13:21:33;17.55;;;9.82;;
48574;SDS011;34352;51.084;3.712;2022-10-30T13:26:49;16.27;;;9.40;;
48574;SDS011;34352;51.084;3.712;2022-10-30T13:40:41;10.65;;;5.47;;
48574;SDS011;34352;51.084;3.712;2022-10-30T13:51:54;10.05;;;5.10;;
48574;SDS011;34352;51.084;3.712;2022-10-30T13:54:30;9.10;;;4.55;;
48574;SDS011;34352;51.084;3.712;2022-10-30T13:57:01;9.32;;;4.55;;
48574;SDS011;34352;51.084;3.712;2022-10-30T14:05:42;11.90;;;4.85;;
48574;SDS011;34352;51.084;3.712;2022-10-30T14:08:51;14.82;;;5.53;;
48574;SDS011;34352;51.084;3.712;2022-10-30T16:06:04;10.15;;;3.80;;
48574;SDS011;34352;51.084;3.712;2022-10-30T16:08:32;7.10;;;3.75;;
48574;SDS011;34352;51.084;3.712;2022-10-30T16:11:10;12.85;;;5.55;;
48574;SDS011;34352;51.084;3.712;2022-10-30T16:13:36;9.57;;;4.05;;
48574;SDS011;34352;51.084;3.712;2022-10-30T16:16:04;6.95;;;3.92;;
48574;SDS011;34352;51.084;3.712;2022-10-30T16:18:31;16.42;;;5.15;;
48574;SDS011;34352;51.084;3.712;2022-10-30T16:21:00;12.77;;;5.13;;
48574;SDS011;34352;51.084;3.712;2022-10-30T16:23:35;11.07;;;5.55;;
48574;SDS011;34352;51.084;3.712;2022-10-30T16:31:28;10.77;;;5.10;;
48574;SDS011;34352;51.084;3.712;2022-10-30T16:36:40;10.95;;;5.70;;
48574;SDS011;34352;51.084;3.712;2022-10-30T16:39:54;12.38;;;7.22;;
48574;SDS011;34352;51.084;3.712;2022-10-30T16:42:22;15.85;;;8.20;;
48574;SDS011;34352;51.084;3.712;2022-10-30T16:45:06;16.33;;;8.75;;
48574;SDS011;34352;51.084;3.712;2022-10-30T16:47:46;17.75;;;8.00;;
48574;SDS011;34352;51.084;3.712;2022-10-30T16:50:29;17.80;;;8.43;;
48574;SDS011;34352;51.084;3.712;2022-10-30T17:09:14;14.63;;;7.20;;
48574;SDS011;34352;51.084;3.712;2022-10-30T17:15:14;15.88;;;9.02;;
48574;SDS011;34352;51.084;3.712;2022-10-30T17:17:44;19.23;;;9.50;;
48574;SDS011;34352;51.084;3.712;2022-10-30T17:23:33;15.30;;;7.93;;
48574;SDS011;34352;51.084;3.712;2022-10-30T17:26:06;15.57;;;9.35;;
48574;SDS011;34352;51.084;3.712;2022-10-30T17:28:37;14.60;;;8.63;;
48574;SDS011;34352;51.084;3.712;2022-10-30T17:36:36;18.77;;;11.45;;
48574;SDS011;34352;51.084;3.712;2022-10-30T17:39:01;14.52;;;8.70;;
48574;SDS011;34352;51.084;3.712;2022-10-30T17:41:27;17.45;;;10.80;;
48574;SDS011;34352;51.084;3.712;2022-10-30T17:43:54;23.48;;;14.75;;
48574;SDS011;34352;51.084;3.712;2022-10-30T17:46:21;21.33;;;11.07;;
48574;SDS011;34352;51.084;3.712;2022-10-30T17:48:49;17.67;;;8.85;;
48574;SDS011;34352;51.084;3.712;2022-10-30T17:51:15;18.60;;;9.18;;
48574;SDS011;34352;51.084;3.712;2022-10-30T17:53:42;15.98;;;9.00;;
48574;SDS011;34352;51.084;3.712;2022-10-30T17:58:48;17.17;;;9.00;;
48574;SDS011;34352;51.084;3.712;2022-10-30T18:01:15;16.83;;;8.80;;
48574;SDS011;34352;51.084;3.712;2022-10-30T18:03:44;19.23;;;9.68;;
48574;SDS011;34352;51.084;3.712;2022-10-30T18:06:14;18.63;;;8.35;;
48574;SDS011;34352;51.084;3.712;2022-10-30T18:08:43;16.20;;;7.47;;
48574;SDS011;34352;51.084;3.712;2022-10-30T18:11:12;14.55;;;7.88;;
48574;SDS011;34352;51.084;3.712;2022-10-30T18:13:39;16.48;;;8.20;;
48574;SDS011;34352;51.084;3.712;2022-10-30T18:16:09;16.35;;;7.50;;
48574;SDS011;34352;51.084;3.712;2022-10-30T18:18:41;16.50;;;6.65;;
48574;SDS011;34352;51.084;3.712;2022-10-30T18:21:17;13.50;;;6.50;;
48574;SDS011;34352;51.084;3.712;2022-10-30T18:23:45;14.18;;;6.07;;
48574;SDS011;34352;51.084;3.712;2022-10-30T18:26:15;14.38;;;6.40;;
48574;SDS011;34352;51.084;3.712;2022-10-30T18:28:43;15.95;;;7.32;;
48574;SDS011;34352;51.084;3.712;2022-10-30T18:31:10;13.55;;;5.80;;
48574;SDS011;34352;51.084;3.712;2022-10-30T18:33:37;10.18;;;5.70;;
48574;SDS011;34352;51.084;3.712;2022-10-30T18:36:16;13.38;;;6.20;;
48574;SDS011;34352;51.084;3.712;2022-10-30T18:38:43;12.02;;;6.15;;
48574;SDS011;34352;51.084;3.712;2022-10-30T18:41:13;13.80;;;7.28;;
48574;SDS011;34352;51.084;3.712;2022-10-30T18:43:40;10.63;;;6.67;;
48574;SDS011;34352;51.084;3.712;2022-10-30T18:46:08;11.85;;;6.82;;
48574;SDS011;34352;51.084;3.712;2022-10-30T18:48:37;12.73;;;7.10;;
48574;SDS011;34352;51.084;3.712;2022-10-30T18:51:04;12.50;;;8.15;;
48574;SDS011;34352;51.084;3.712;2022-10-30T18:53:30;14.40;;;7.57;;
48574;SDS011;34352;51.084;3.712;2022-10-30T18:55:56;17.02;;;8.40;;
48574;SDS011;34352;51.084;3.712;2022-10-30T18:58:22;15.98;;;7.60;;
48574;SDS011;34352;51.084;3.712;2022-10-30T19:00:47;14.45;;;7.18;;
48574;SDS011;34352;51.084;3.712;2022-10-30T19:03:13;11.68;;;6.50;;
48574;SDS011;34352;51.084;3.712;2022-10-30T19:05:42;15.80;;;7.72;;
48574;SDS011;34352;51.084;3.712;2022-10-30T19:08:09;12.82;;;6.93;;
48574;SDS011;34352;51.084;3.712;2022-10-30T19:10:38;16.88;;;7.47;;
48574;SDS011;34352;51.084;3.712;2022-10-30T19:15:37;17.17;;;8.52;;
48574;SDS011;34352;51.084;3.712;2022-10-30T19:18:04;17.10;;;8.82;;
48574;SDS011;34352;51.084;3.712;2022-10-30T19:20:31;18.65;;;9.48;;
48574;SDS011;34352;51.084;3.712;2022-10-30T19:22:58;15.55;;;8.50;;
48574;SDS011;34352;51.084;3.712;2022-10-30T19:25:30;10.57;;;6.65;;